Time;durP1;ratioP1;P1;durP2;ratioP2;P2;SDS_P1;SDS_P2;PMS_P1;PMS_P2;Temp;Humidity;BMP_temperature;BMP_pressure;BME280_temperature;BME280_humidity;BME280_pressure;Samples;Min_cycle;Max_cycle;Signal;HPM_P1;HPM_P2
2023/03/03 00:04:39;;;;;;;16.17;10.03;;;1.40;99.90;;;;;;9788010;30;20224;-81
2023/03/03 00:10:00;;;;;;;13.57;9.17;;;1.50;99.90;;;;;;9793714;30;20234;-81
2023/03/03 00:15:24;;;;;;;16.27;8.93;;;1.40;99.90;;;;;;9807266;30;20291;-82
2023/03/03 00:20:52;;;;;;;16.20;9.07;;;1.40;99.90;;;;;;9789344;30;20192;-81
2023/03/03 00:26:43;;;;;;;13.10;8.77;;;1.40;99.90;;;;;;9805249;30;20270;-82
2023/03/03 00:32:42;;;;;;;12.47;8.33;;;1.30;99.90;;;;;;9813494;30;20273;-82
2023/03/03 00:38:15;;;;;;;12.47;7.90;;;1.30;99.90;;;;;;9829251;30;20218;-82
2023/03/03 00:43:36;;;;;;;14.60;8.10;;;1.30;99.90;;;;;;9812790;30;20269;-81
2023/03/03 00:48:58;;;;;;;14.67;8.10;;;1.20;99.90;;;;;;9784261;30;20617;-82
2023/03/03 00:54:20;;;;;;;12.77;7.60;;;1.30;99.90;;;;;;9787653;30;20235;-82
2023/03/03 00:59:41;;;;;;;19.17;9.13;;;1.20;99.90;;;;;;9777615;30;20522;-82
2023/03/03 01:05:04;;;;;;;12.73;8.13;;;1.30;99.90;;;;;;9810805;30;20207;-82
2023/03/03 01:10:29;;;;;;;14.23;8.57;;;1.40;99.90;;;;;;9823766;30;20230;-80
2023/03/03 01:15:50;;;;;;;12.30;7.73;;;1.40;99.90;;;;;;9799894;30;20375;-82
2023/03/03 01:21:12;;;;;;;10.50;6.70;;;1.30;99.90;;;;;;9774457;30;20204;-80
2023/03/03 01:26:33;;;;;;;12.93;6.80;;;1.30;99.90;;;;;;9786225;30;20377;-79
2023/03/03 01:31:55;;;;;;;11.50;7.03;;;1.20;99.90;;;;;;9789185;30;20333;-80
2023/03/03 01:37:16;;;;;;;12.83;6.57;;;1.40;99.90;;;;;;9774110;30;20215;-79
2023/03/03 01:42:37;;;;;;;11.47;7.10;;;1.50;99.90;;;;;;9812201;30;20218;-80
2023/03/03 01:48:12;;;;;;;10.83;5.87;;;1.50;99.90;;;;;;9793091;30;20290;-81
2023/03/03 01:53:45;;;;;;;6.37;5.20;;;1.50;99.90;;;;;;9810229;30;20302;-80
2023/03/03 01:59:18;;;;;;;9.13;5.90;;;1.40;99.90;;;;;;9808935;30;20199;-82
2023/03/03 02:04:40;;;;;;;9.83;5.73;;;1.40;99.90;;;;;;9785759;30;20431;-82
2023/03/03 02:10:09;;;;;;;9.80;6.60;;;1.40;99.90;;;;;;9808393;30;20311;-81
2023/03/03 02:15:34;;;;;;;10.77;6.83;;;1.40;99.90;;;;;;9820607;30;20556;-82
2023/03/03 02:21:15;;;;;;;9.40;6.40;;;1.30;99.90;;;;;;9819503;30;20221;-82
2023/03/03 02:26:40;;;;;;;10.63;7.17;;;1.30;99.90;;;;;;9808213;30;20212;-83
2023/03/03 02:32:03;;;;;;;12.93;7.63;;;1.30;99.90;;;;;;9806754;30;20538;-82
2023/03/03 02:37:25;;;;;;;8.70;6.83;;;1.40;99.90;;;;;;9819969;30;20238;-83
2023/03/03 02:42:51;;;;;;;10.67;7.00;;;1.30;99.90;;;;;;9806274;30;20222;-82
2023/03/03 02:48:12;;;;;;;12.43;6.90;;;1.20;99.90;;;;;;9806548;30;20208;-84
2023/03/03 02:53:34;;;;;;;9.17;6.90;;;1.20;99.90;;;;;;9795689;30;20255;-82
2023/03/03 02:58:56;;;;;;;10.17;5.90;;;1.10;99.90;;;;;;9794273;30;20213;-81
2023/03/03 03:04:20;;;;;;;10.47;5.53;;;1.20;99.90;;;;;;9806957;30;20290;-82
2023/03/03 03:09:43;;;;;;;10.03;6.50;;;1.20;99.90;;;;;;9805702;30;20239;-82
2023/03/03 03:15:05;;;;;;;12.23;7.47;;;1.20;99.90;;;;;;9806276;30;20254;-83
2023/03/03 03:20:27;;;;;;;9.60;6.37;;;1.20;99.90;;;;;;9805608;30;20529;-82
2023/03/03 03:25:48;;;;;;;8.80;6.13;;;1.20;99.90;;;;;;9806647;30;20493;-82
2023/03/03 03:31:20;;;;;;;9.87;5.87;;;1.40;99.90;;;;;;9821382;30;20309;-83
2023/03/03 03:36:42;;;;;;;7.87;5.27;;;1.40;99.90;;;;;;9855203;30;20247;-81
2023/03/03 03:42:05;;;;;;;9.10;5.70;;;1.40;99.90;;;;;;9824774;30;20218;-81
2023/03/03 03:47:26;;;;;;;8.00;5.70;;;1.40;99.90;;;;;;9805541;30;20443;-80
2023/03/03 03:52:49;;;;;;;15.40;5.53;;;1.50;99.90;;;;;;9793083;30;20239;-83
2023/03/03 03:58:16;;;;;;;12.03;6.07;;;1.60;99.90;;;;;;9792769;30;20499;-80
2023/03/03 04:03:42;;;;;;;11.13;6.23;;;1.60;99.90;;;;;;9818138;30;20204;-81
2023/03/03 04:09:08;;;;;;;7.40;5.17;;;1.70;99.90;;;;;;9804857;30;20219;-84
2023/03/03 04:14:29;;;;;;;11.93;6.60;;;1.80;99.90;;;;;;9793437;30;20218;-84
2023/03/03 04:19:54;;;;;;;10.13;6.17;;;1.90;99.90;;;;;;9792698;30;20262;-84
2023/03/03 04:25:17;;;;;;;12.23;7.17;;;1.90;99.90;;;;;;9818014;30;20290;-84
2023/03/03 04:30:39;;;;;;;11.93;6.80;;;2.00;99.90;;;;;;9792540;30;20246;-83
2023/03/03 04:36:01;;;;;;;12.13;7.23;;;2.00;99.90;;;;;;9769995;30;20284;-83
2023/03/03 04:41:23;;;;;;;11.87;7.50;;;2.10;99.90;;;;;;9777519;30;20456;-84
2023/03/03 04:46:45;;;;;;;15.47;9.00;;;2.10;99.90;;;;;;9817493;30;20516;-82
2023/03/03 04:52:06;;;;;;;13.23;8.20;;;2.10;99.90;;;;;;9801080;30;20273;-83
2023/03/03 04:57:30;;;;;;;13.53;8.50;;;2.10;99.90;;;;;;9793360;30;20219;-82
2023/03/03 05:02:51;;;;;;;15.13;8.90;;;2.10;99.90;;;;;;9786201;30;20234;-82
2023/03/03 05:08:13;;;;;;;19.63;10.27;;;2.10;99.90;;;;;;9785106;30;20201;-80
2023/03/03 05:13:34;;;;;;;16.50;9.13;;;2.10;99.90;;;;;;9820539;30;20264;-80
2023/03/03 05:18:56;;;;;;;18.30;10.60;;;2.10;99.90;;;;;;9838069;30;20274;-83
2023/03/03 05:24:17;;;;;;;14.87;8.83;;;2.10;99.90;;;;;;9814873;30;20235;-82
2023/03/03 05:29:39;;;;;;;19.40;11.27;;;2.20;99.90;;;;;;9811578;30;20348;-82
2023/03/03 05:35:00;;;;;;;21.57;11.00;;;2.20;99.90;;;;;;9774728;30;20263;-80
2023/03/03 05:40:22;;;;;;;17.67;10.87;;;2.20;99.90;;;;;;9797002;30;20397;-80
2023/03/03 05:45:43;;;;;;;18.27;11.23;;;2.20;99.90;;;;;;9797414;30;20290;-80
2023/03/03 05:51:04;;;;;;;22.57;11.50;;;2.20;99.90;;;;;;9795736;30;20540;-80
2023/03/03 05:56:26;;;;;;;19.60;11.50;;;2.20;99.90;;;;;;9797280;30;20505;-81
2023/03/03 06:01:47;;;;;;;18.17;10.50;;;2.20;99.90;;;;;;9796458;30;20226;-80
2023/03/03 06:07:08;;;;;;;18.67;11.47;;;2.30;99.90;;;;;;9808576;30;20498;-81
2023/03/03 06:12:30;;;;;;;19.13;10.73;;;2.40;99.90;;;;;;9807717;30;20239;-81
2023/03/03 06:17:51;;;;;;;16.73;9.87;;;2.50;99.90;;;;;;9795683;30;20252;-81
2023/03/03 06:23:12;;;;;;;15.27;9.20;;;2.60;99.90;;;;;;9820032;30;20227;-81
2023/03/03 06:28:33;;;;;;;16.27;10.40;;;2.60;99.90;;;;;;9820556;30;20208;-81
2023/03/03 06:33:55;;;;;;;19.23;10.97;;;2.60;99.90;;;;;;9818428;30;20438;-80
2023/03/03 06:39:16;;;;;;;17.80;10.37;;;2.60;99.90;;;;;;9772363;30;20415;-81
2023/03/03 06:44:37;;;;;;;17.53;10.17;;;2.60;99.90;;;;;;9778950;30;20216;-81
2023/03/03 06:49:58;;;;;;;20.10;11.43;;;2.80;99.90;;;;;;9807716;30;20430;-82
2023/03/03 06:55:22;;;;;;;16.47;10.23;;;2.80;99.90;;;;;;9807456;30;20217;-82
2023/03/03 07:00:51;;;;;;;14.87;9.40;;;2.80;99.90;;;;;;9808323;30;20269;-83
2023/03/03 07:06:23;;;;;;;12.77;8.83;;;2.90;99.90;;;;;;9806321;30;20223;-83
2023/03/03 07:11:45;;;;;;;13.83;8.90;;;3.00;99.90;;;;;;9819936;30;20283;-81
2023/03/03 07:17:15;;;;;;;17.47;10.87;;;3.30;99.90;;;;;;9807721;30;20263;-83
2023/03/03 07:22:36;;;;;;;35.73;18.53;;;3.40;99.90;;;;;;9819405;30;20498;-83
2023/03/03 07:28:10;;;;;;;13.83;9.40;;;3.40;99.90;;;;;;9820655;30;20205;-83
2023/03/03 07:33:41;;;;;;;17.67;10.57;;;3.40;99.90;;;;;;9799193;30;20320;-82
2023/03/03 07:39:17;;;;;;;14.03;8.90;;;3.50;99.90;;;;;;9795129;30;20536;-83
2023/03/03 07:44:39;;;;;;;14.60;9.50;;;3.50;99.90;;;;;;9805299;30;20220;-82
2023/03/03 07:50:13;;;;;;;14.20;8.90;;;3.50;99.90;;;;;;9769592;30;20237;-82
2023/03/03 07:55:36;;;;;;;17.60;9.73;;;3.50;99.90;;;;;;9806695;30;20266;-82
2023/03/03 08:01:26;;;;;;;17.10;10.53;;;3.50;99.90;;;;;;9793513;30;20201;-82
2023/03/03 08:06:49;;;;;;;19.80;10.37;;;3.70;99.90;;;;;;9806125;30;20213;-83
2023/03/03 08:12:18;;;;;;;12.73;8.33;;;3.80;99.90;;;;;;9817814;30;20492;-82
2023/03/03 08:17:41;;;;;;;11.37;7.43;;;3.70;99.90;;;;;;9804972;30;20245;-82
2023/03/03 08:23:03;;;;;;;10.70;6.90;;;3.80;99.90;;;;;;9809012;30;20270;-83
2023/03/03 08:28:24;;;;;;;16.67;8.43;;;3.90;99.90;;;;;;9824101;30;20207;-84
2023/03/03 08:33:46;;;;;;;10.70;7.03;;;4.10;99.90;;;;;;9834694;30;20267;-83
2023/03/03 08:39:08;;;;;;;17.13;7.20;;;4.10;99.90;;;;;;9837492;30;20389;-83
2023/03/03 08:44:29;;;;;;;15.30;8.23;;;4.00;99.90;;;;;;9855273;30;20379;-83
2023/03/03 08:49:50;;;;;;;13.20;7.90;;;3.90;99.90;;;;;;9820104;30;20220;-83
2023/03/03 08:55:12;;;;;;;18.60;8.30;;;4.00;99.90;;;;;;9843163;30;20221;-88
2023/03/03 09:00:33;;;;;;;15.77;9.30;;;3.80;99.90;;;;;;9844203;30;20507;-80
2023/03/03 09:05:54;;;;;;;14.13;8.63;;;3.70;99.90;;;;;;9855702;30;20214;-83
2023/03/03 09:11:23;;;;;;;18.97;9.93;;;3.60;99.90;;;;;;9857725;30;20226;-84
2023/03/03 09:16:53;;;;;;;17.53;9.03;;;3.70;99.90;;;;;;9843256;30;20251;-83
2023/03/03 09:22:23;;;;;;;19.87;11.03;;;3.90;99.90;;;;;;9843358;30;20254;-90
2023/03/03 09:27:44;;;;;;;15.90;9.30;;;4.10;99.90;;;;;;9843583;30;20601;-84
2023/03/03 09:33:45;;;;;;;20.07;10.50;;;4.00;99.90;;;;;;9825683;30;20253;-82
2023/03/03 09:39:15;;;;;;;18.70;9.30;;;4.10;99.90;;;;;;9835004;30;20577;-82
2023/03/03 09:45:14;;;;;;;15.67;9.27;;;4.20;99.90;;;;;;9815761;30;20233;-84
2023/03/03 09:50:49;;;;;;;15.87;9.13;;;4.20;99.90;;;;;;9837162;30;20315;-84
2023/03/03 09:56:34;;;;;;;14.53;9.10;;;4.40;99.90;;;;;;9857924;30;20208;-84
2023/03/03 10:02:01;;;;;;;15.27;7.50;;;4.80;99.90;;;;;;9835150;30;20214;-85
2023/03/03 10:08:01;;;;;;;11.17;6.73;;;5.20;99.90;;;;;;9844467;30;20228;-83
2023/03/03 10:13:52;;;;;;;11.67;6.53;;;5.40;99.90;;;;;;9851458;30;20259;-86
2023/03/03 10:19:22;;;;;;;15.17;6.27;;;5.30;99.90;;;;;;9849243;30;20529;-83
2023/03/03 10:24:59;;;;;;;11.13;7.20;;;5.40;99.90;;;;;;9864104;30;20424;-86
2023/03/03 10:30:27;;;;;;;15.13;6.57;;;5.50;99.90;;;;;;9857857;30;20252;-86
2023/03/03 10:36:27;;;;;;;13.23;8.23;;;5.70;99.90;;;;;;9832837;30;20210;-84
2023/03/03 10:41:53;;;;;;;8.33;5.57;;;5.80;99.90;;;;;;9851425;30;20225;-85
2023/03/03 10:47:46;;;;;;;11.13;5.90;;;5.80;99.90;;;;;;9835154;30;20209;-84
2023/03/03 10:53:20;;;;;;;6.97;4.60;;;6.40;99.90;;;;;;9838127;30;20241;-84
2023/03/03 10:58:59;;;;;;;10.17;6.33;;;6.90;99.90;;;;;;9844151;30;20223;-86
2023/03/03 11:04:37;;;;;;;6.47;3.87;;;8.00;99.90;;;;;;9829412;30;20216;-85
2023/03/03 11:10:18;;;;;;;5.80;4.13;;;8.90;95.30;;;;;;9830591;30;20204;-86
2023/03/03 11:16:13;;;;;;;6.40;4.23;;;8.40;95.90;;;;;;9816568;30;20243;-84
2023/03/03 11:21:52;;;;;;;6.97;4.63;;;8.20;96.70;;;;;;9839168;30;20230;-86
2023/03/03 11:27:39;;;;;;;5.40;3.67;;;8.50;95.80;;;;;;9838427;30;20223;-83
2023/03/03 11:33:08;;;;;;;7.60;4.00;;;7.90;95.70;;;;;;9830821;30;20306;-83
2023/03/03 11:38:57;;;;;;;5.07;3.10;;;7.50;99.00;;;;;;9818860;30;20256;-85
2023/03/03 11:44:34;;;;;;;5.03;3.27;;;7.90;95.30;;;;;;9835017;30;20318;-84
2023/03/03 11:50:19;;;;;;;5.87;3.40;;;7.80;97.60;;;;;;9839304;30;20226;-86
2023/03/03 11:55:43;;;;;;;7.70;3.53;;;8.80;90.90;;;;;;9837870;30;20528;-85
2023/03/03 12:01:29;;;;;;;8.77;3.33;;;10.10;73.30;;;;;;9834462;30;20217;-84
2023/03/03 12:07:22;;;;;;;6.50;3.47;;;9.90;68.60;;;;;;9828813;30;20222;-85
2023/03/03 12:12:54;;;;;;;4.83;3.00;;;11.20;46.00;;;;;;9836554;30;20555;-84
2023/03/03 12:18:36;;;;;;;9.60;3.43;;;12.30;36.40;;;;;;9818709;30;20253;-84
2023/03/03 12:24:03;;;;;;;10.30;4.70;;;13.10;29.00;;;;;;9852547;30;20223;-85
2023/03/03 12:29:28;;;;;;;6.67;2.50;;;13.20;23.90;;;;;;9828329;30;20518;-85
2023/03/03 12:35:06;;;;;;;4.70;2.43;;;12.60;24.60;;;;;;9809700;30;20349;-85
2023/03/03 12:40:40;;;;;;;5.07;2.73;;;12.30;24.40;;;;;;9840116;30;20255;-85
2023/03/03 12:46:18;;;;;;;3.73;2.60;;;12.80;24.10;;;;;;9816338;30;20219;-85
2023/03/03 12:52:22;;;;;;;6.57;3.47;;;12.50;24.80;;;;;;9842564;30;20263;-84
2023/03/03 12:57:49;;;;;;;3.93;2.43;;;11.70;26.90;;;;;;9824878;30;20450;-85
2023/03/03 13:03:23;;;;;;;4.43;2.67;;;11.80;1.00;;;;;;9837701;30;20230;-85
2023/03/03 13:09:09;;;;;;;6.47;3.60;;;11.90;1.00;;;;;;9822798;30;20217;-85
2023/03/03 13:14:38;;;;;;;8.23;3.13;;;12.10;1.00;;;;;;9806892;30;20269;-84
2023/03/03 13:20:03;;;;;;;5.33;3.03;;;11.70;1.00;;;;;;9840426;30;20276;-86
2023/03/03 13:25:38;;;;;;;6.83;2.63;;;11.20;1.00;;;;;;9809584;30;20220;-83
2023/03/03 13:31:32;;;;;;;17.63;5.47;;;11.10;1.00;;;;;;9799896;30;20249;-84
2023/03/03 13:37:13;;;;;;;6.43;3.07;;;11.40;1.00;;;;;;9838188;30;20199;-86
2023/03/03 13:42:48;;;;;;;5.73;3.20;;;11.90;1.00;;;;;;9812536;30;20208;-87
2023/03/03 13:48:46;;;;;;;14.90;5.07;;;11.60;1.00;;;;;;9843676;30;20275;-84
2023/03/03 13:54:15;;;;;;;6.53;3.87;;;11.20;1.00;;;;;;9836404;30;20247;-85
2023/03/03 14:00:22;;;;;;;7.73;4.17;;;10.40;1.00;;;;;;9856188;30;20232;-84
2023/03/03 14:05:48;;;;;;;7.53;3.00;;;9.60;1.00;;;;;;9852061;30;20220;-83
2023/03/03 14:11:19;;;;;;;6.47;3.70;;;9.00;1.00;;;;;;9855641;30;20233;-85
2023/03/03 14:16:50;;;;;;;10.00;3.53;;;8.70;14.30;;;;;;9812070;30;20565;-84
2023/03/03 14:22:24;;;;;;;13.43;3.90;;;8.50;47.40;;;;;;9834970;30;20301;-81
2023/03/03 14:27:46;;;;;;;7.27;3.33;;;8.10;99.90;;;;;;9818888;30;20204;-79
2023/03/03 14:33:07;;;;;;;7.10;3.37;;;7.80;99.90;;;;;;9839742;30;20266;-82
2023/03/03 14:38:31;;;;;;;6.03;3.40;;;7.60;99.90;;;;;;9842426;30;20221;-87
2023/03/03 14:44:19;;;;;;;8.17;3.67;;;7.30;1.00;;;;;;9856309;30;20209;-80
2023/03/03 14:49:40;;;;;;;10.30;5.03;;;7.10;1.00;;;;;;9853244;30;20214;-83
2023/03/03 14:55:41;;;;;;;12.97;4.30;;;7.00;88.80;;;;;;9846461;30;20308;-80
2023/03/03 15:01:23;;;;;;;7.33;3.83;;;6.90;80.30;;;;;;9845232;30;20210;-82
2023/03/03 15:06:47;;;;;;;10.93;3.87;;;6.90;84.80;;;;;;9804030;30;20244;-83
2023/03/03 15:12:35;;;;;;;11.57;4.13;;;6.70;84.10;;;;;;9808822;30;20273;-81
2023/03/03 15:18:04;;;;;;;9.10;4.73;;;6.40;86.90;;;;;;9814646;30;20255;-85
2023/03/03 15:23:34;;;;;;;8.40;3.93;;;6.20;92.80;;;;;;9815907;30;20203;-82
2023/03/03 15:29:14;;;;;;;9.23;5.00;;;6.20;92.40;;;;;;9802086;30;20272;-79
2023/03/03 15:34:44;;;;;;;11.90;4.50;;;6.00;94.00;;;;;;9839280;30;20226;-88
2023/03/03 15:40:43;;;;;;;9.63;4.60;;;6.00;94.70;;;;;;9814279;30;20271;-79
2023/03/03 15:46:51;;;;;;;9.23;3.63;;;5.90;94.60;;;;;;9824445;30;20777;-81
2023/03/03 15:52:38;;;;;;;8.87;4.03;;;5.80;96.20;;;;;;9839282;30;20249;-82
2023/03/03 15:58:14;;;;;;;15.57;6.23;;;5.80;96.90;;;;;;9852213;30;20223;-83
2023/03/03 16:03:47;;;;;;;15.40;5.60;;;5.70;98.20;;;;;;9854222;30;20209;-82
2023/03/03 16:09:28;;;;;;;11.80;4.60;;;5.60;97.40;;;;;;9809904;30;20298;-82
2023/03/03 16:14:52;;;;;;;7.83;4.70;;;5.40;98.20;;;;;;9792432;30;20601;-82
2023/03/03 16:20:29;;;;;;;10.30;5.43;;;5.30;99.00;;;;;;9821101;30;20412;-80
2023/03/03 16:26:28;;;;;;;10.53;5.03;;;5.30;99.90;;;;;;9791905;30;20247;-81
2023/03/03 16:32:16;;;;;;;9.60;5.73;;;5.30;99.90;;;;;;9803205;30;20317;-83
2023/03/03 16:38:02;;;;;;;12.63;6.30;;;5.10;99.90;;;;;;9818196;30;20205;-81
2023/03/03 16:43:29;;;;;;;10.20;6.03;;;5.00;99.90;;;;;;9841102;30;20360;-83
2023/03/03 16:49:18;;;;;;;9.70;5.30;;;4.90;99.90;;;;;;9841086;30;20216;-83
2023/03/03 16:55:01;;;;;;;12.30;7.10;;;4.60;99.90;;;;;;9829415;30;20248;-83
2023/03/03 17:00:28;;;;;;;12.07;5.83;;;4.60;99.90;;;;;;9852735;30;20225;-83
2023/03/03 17:06:20;;;;;;;12.47;5.90;;;4.60;99.90;;;;;;9847066;30;20504;-82
2023/03/03 17:11:59;;;;;;;14.50;7.83;;;4.60;99.90;;;;;;9819273;30;20431;-83
2023/03/03 17:17:23;;;;;;;12.53;7.50;;;4.50;99.90;;;;;;9836368;30;20249;-82
2023/03/03 17:22:56;;;;;;;10.67;6.80;;;4.40;99.90;;;;;;9835323;30;20236;-82
2023/03/03 17:28:23;;;;;;;12.53;7.40;;;4.20;99.90;;;;;;9845101;30;20226;-83
2023/03/03 17:34:14;;;;;;;11.80;7.13;;;4.20;99.90;;;;;;9860176;30;20527;-83
2023/03/03 17:40:02;;;;;;;12.47;6.87;;;4.10;99.90;;;;;;9834293;30;20230;-82
2023/03/03 17:45:26;;;;;;;12.60;7.23;;;4.00;99.90;;;;;;9812913;30;20234;-82
2023/03/03 17:51:09;;;;;;;13.57;7.77;;;4.00;99.90;;;;;;9842983;30;20217;-83
2023/03/03 17:56:43;;;;;;;11.17;8.17;;;4.00;99.90;;;;;;9846222;30;20219;-82
2023/03/03 18:02:13;;;;;;;16.13;8.80;;;4.00;99.90;;;;;;9833166;30;20224;-81
2023/03/03 18:07:40;;;;;;;13.00;7.83;;;4.00;99.90;;;;;;9845174;30;20395;-82
2023/03/03 18:13:21;;;;;;;13.73;8.10;;;3.90;99.90;;;;;;9815236;30;20241;-82
2023/03/03 18:18:57;;;;;;;14.03;8.80;;;4.00;99.90;;;;;;9824905;30;20261;-82
2023/03/03 18:24:25;;;;;;;13.60;8.87;;;4.00;99.90;;;;;;9798291;30;20229;-82
2023/03/03 18:30:09;;;;;;;16.20;8.73;;;4.00;99.90;;;;;;9808492;30;20215;-83
2023/03/03 18:35:42;;;;;;;15.43;8.43;;;4.00;99.90;;;;;;9723659;30;20241;-82
2023/03/03 18:41:10;;;;;;;13.90;8.63;;;3.90;99.90;;;;;;9731915;30;20485;-82
2023/03/03 18:46:34;;;;;;;15.67;8.70;;;3.80;99.90;;;;;;9754511;30;20232;-82
2023/03/03 18:52:17;;;;;;;16.37;10.20;;;3.70;99.90;;;;;;9755138;30;20320;-82
2023/03/03 18:57:38;;;;;;;13.20;9.00;;;3.60;99.90;;;;;;9737407;30;20228;-85
2023/03/03 19:03:00;;;;;;;20.23;11.93;;;3.60;99.90;;;;;;9740353;30;20236;-82
2023/03/03 19:08:23;;;;;;;17.00;10.47;;;3.60;99.90;;;;;;9751184;30;20203;-84
2023/03/03 19:13:45;;;;;;;17.47;9.77;;;3.60;99.90;;;;;;9835203;30;20242;-84
2023/03/03 19:19:18;;;;;;;21.47;10.43;;;3.50;99.90;;;;;;9821760;30;20249;-83
2023/03/03 19:25:00;;;;;;;20.07;11.37;;;3.50;99.90;;;;;;9797321;30;20543;-85
2023/03/03 19:30:33;;;;;;;23.80;11.77;;;3.50;99.90;;;;;;9840347;30;20280;-83
2023/03/03 19:36:00;;;;;;;15.50;10.13;;;3.50;99.90;;;;;;9819941;30;20242;-84
2023/03/03 19:41:41;;;;;;;16.77;10.40;;;3.50;99.90;;;;;;9806220;30;20211;-81
2023/03/03 19:47:32;;;;;;;18.53;10.70;;;3.50;99.90;;;;;;9842646;30;20215;-85
2023/03/03 19:53:11;;;;;;;16.93;10.40;;;3.50;99.90;;;;;;9822192;30;20239;-82
2023/03/03 19:58:40;;;;;;;15.17;9.17;;;3.50;99.90;;;;;;9850412;30;20572;-83
2023/03/03 20:04:46;;;;;;;16.40;9.13;;;3.50;99.90;;;;;;9854189;30;20219;-82
2023/03/03 20:10:33;;;;;;;14.13;8.87;;;3.50;99.90;;;;;;9764829;30;20216;-82
2023/03/03 20:16:36;;;;;;;13.03;8.17;;;3.50;99.90;;;;;;9774756;30;20333;-83
2023/03/03 20:22:33;;;;;;;10.60;7.63;;;3.50;99.90;;;;;;9775305;30;20305;-84
2023/03/03 20:27:54;;;;;;;14.63;8.57;;;3.50;99.90;;;;;;9619773;30;20306;-81
2023/03/03 20:34:01;;;;;;;13.57;8.27;;;3.50;99.90;;;;;;9621505;30;20247;-84
2023/03/03 20:39:25;;;;;;;12.77;9.03;;;3.50;99.90;;;;;;9559370;31;20267;-84
2023/03/03 20:45:05;;;;;;;13.17;8.80;;;3.60;99.90;;;;;;9593285;30;20471;-84
2023/03/03 20:51:04;;;;;;;17.67;9.17;;;3.50;99.90;;;;;;9639211;30;20476;-84
2023/03/03 20:56:43;;;;;;;14.60;8.97;;;3.60;99.90;;;;;;9629136;30;20220;-84
2023/03/03 21:02:26;;;;;;;14.83;8.23;;;3.60;99.90;;;;;;9665252;30;20219;-82
2023/03/03 21:07:56;;;;;;;16.33;10.23;;;3.60;99.90;;;;;;9697288;30;20243;-82
2023/03/03 21:13:39;;;;;;;16.23;10.73;;;3.60;99.90;;;;;;9782745;30;20267;-82
2023/03/03 21:19:10;;;;;;;19.63;9.33;;;3.60;99.90;;;;;;9808154;30;20244;-82
2023/03/03 21:24:47;;;;;;;11.47;7.97;;;3.60;99.90;;;;;;9794545;30;20225;-81
2023/03/03 21:30:14;;;;;;;13.03;8.40;;;3.60;99.90;;;;;;9808083;30;20247;-82
2023/03/03 21:35:56;;;;;;;13.53;8.90;;;3.50;99.90;;;;;;9821594;30;20262;-82
2023/03/03 21:41:18;;;;;;;14.07;8.13;;;3.50;99.90;;;;;;9836649;30;20534;-81
2023/03/03 21:46:40;;;;;;;12.60;8.93;;;3.50;99.90;;;;;;9844777;30;20212;-82
2023/03/03 21:52:01;;;;;;;13.70;8.27;;;3.50;99.90;;;;;;9809179;30;20229;-81
2023/03/03 21:57:23;;;;;;;15.00;8.53;;;3.50;99.90;;;;;;9811988;30;20409;-82
2023/03/03 22:02:44;;;;;;;12.97;8.93;;;3.50;99.90;;;;;;9844903;30;20495;-83
2023/03/03 22:08:06;;;;;;;13.67;9.00;;;3.40;99.90;;;;;;9828197;30;20508;-82
2023/03/03 22:13:27;;;;;;;13.63;9.00;;;3.40;99.90;;;;;;9817331;30;20322;-81
2023/03/03 22:18:49;;;;;;;14.57;9.67;;;3.40;99.90;;;;;;9810078;30;20240;-82
2023/03/03 22:24:10;;;;;;;14.67;9.57;;;3.40;99.90;;;;;;9796860;30;20213;-82
2023/03/03 22:29:31;;;;;;;15.20;9.07;;;3.40;99.90;;;;;;9818013;30;20279;-82
2023/03/03 22:34:53;;;;;;;18.87;9.13;;;3.40;99.90;;;;;;9845172;30;20438;-82
2023/03/03 22:40:14;;;;;;;20.90;8.83;;;3.30;99.90;;;;;;9835172;30;20221;-83
2023/03/03 22:45:36;;;;;;;15.20;8.40;;;3.30;99.90;;;;;;9843619;30;20510;-82
2023/03/03 22:50:57;;;;;;;18.77;7.90;;;3.30;99.90;;;;;;9835045;30;20207;-82
2023/03/03 22:56:18;;;;;;;18.40;8.10;;;3.30;99.90;;;;;;9832688;30;20231;-82
2023/03/03 23:01:39;;;;;;;16.70;8.43;;;3.20;99.90;;;;;;9835823;30;20502;-85
2023/03/03 23:07:00;;;;;;;16.77;8.63;;;3.30;99.90;;;;;;9826613;30;20298;-82
2023/03/03 23:12:22;;;;;;;12.53;7.40;;;3.30;99.90;;;;;;9819904;30;20236;-82
2023/03/03 23:17:45;;;;;;;15.63;7.90;;;3.30;99.90;;;;;;9812342;30;20250;-82
2023/03/03 23:23:06;;;;;;;13.60;7.67;;;3.40;99.90;;;;;;9849742;30;20238;-84
2023/03/03 23:28:27;;;;;;;15.43;8.00;;;3.50;99.90;;;;;;9863271;30;20212;-81
2023/03/03 23:33:48;;;;;;;12.03;8.00;;;3.40;99.90;;;;;;9812118;30;20238;-84
2023/03/03 23:39:11;;;;;;;18.60;8.43;;;3.40;99.90;;;;;;9822185;30;20215;-82
2023/03/03 23:44:32;;;;;;;15.20;7.93;;;3.50;99.90;;;;;;9831278;30;20492;-82
2023/03/03 23:49:53;;;;;;;18.50;7.83;;;3.50;99.90;;;;;;9839405;30;20235;-82
2023/03/03 23:55:15;;;;;;;18.67;8.13;;;3.60;99.90;;;;;;9811093;30;20418;-82
